Terminal Aerodrome Forecast
Issued by NWS

Home | Current Version | Previous Version | Text Only | Print | Product List | Glossary Off
Versions: 1 2 3 4 5 6 7 8 9 10 11 12 13

000
FTUS43 KIWX 080800 AAA
TAFSBN
TAF AMD
KSBN 080852Z 0809/0906 22007KT P6SM SCT006 OVC120
      TEMPO 0809/0812 5SM -SHRA BR OVC006
     FM081200 21010KT 6SM -SHRA BR BKN040
      TEMPO 0812/0816 5SM -SHRA BR BKN030
     FM081600 28013KT P6SM BKN035
     FM090000 27005KT P6SM BKN040=

USA.gov is the U.S. government's official web portal to all federal, state and local government web resources and services.